Bei Facebook empfehlenBei Twitter postenGoogle plusPinterest

Das Wetter im Erzgebirge am 22.07.2015

Wetter und Klima am 22.07.2015 Holzhau im Erzgebirge (630m ü.NN)
Letzte gemessene Temperatur und Uhrzeit der Messung23:45:00 Uhr16.80 °C
Temperatur (Maximum / Höchstwert) und Uhrzeit der Messung15:30:00 Uhr33.40 °C
Temperatur (Minimum / Tiefstwert) und Uhrzeit der Messung05:45:0013.40 °C
Errechneter Absolutwert der Temperaturschwankungen zwischen Tmin und Tmax des Tages20.00 K
Errechnete Tagesmitteltemperatur23.75417 °C
Gesamt - Niederschlag des Tages (in flüssiger Form)15.02 Liter / m²
Luftdruck (Maximum / Höchstwert) und Zeitpunkt der Messung00:45:00 Uhr1015.80 hPa
Luftdruck (Minimum / Tiefstwert) und Zeitpunkt der Messung21:00:00 Uhr1011.30 hPa
Errechneter Absolutwert der Luftdruckschwankungen des Tages4.50 hPa
Höchste gemessene Windgeschwindigkeit und Uhrzeit der Messung20:45:00 Uhr183.60 km/h
Errechnete Windhäufigkeit in Relation zu den Messwerten des Tages1.04167 %
Niedrigste Windkühle (Windchill) und Zeitpunkt der Messung05:45:00 Uhr13.40 °C
Taupunkt (Maximum / Höchstwert) und Uhrzeit der Messung12:30:00 Uhr20.00 °C
Taupunkt (Minimum / Tiefstwert) und Uhrzeit der Messung05:45:0011.60 °C
Anzahl der automatisch eingelesenen Messwerte 96

Detaillierte Wetter- und Klima- Messwerte für den 22.07.2015 in Holzhau im Erzgebirge (630m ü.NN)
ZeitTemperaturLuftdruckRel. LuftfeuchteWindWindrichtungWindchillTaupunktNiederschlag l/m²
23:45:0016.80 °C1014.00 hPa88.00 %14.80 °C15.02
23:30:0016.80 °C1013.90 hPa88.00 %14.80 °C15.02
23:15:0016.80 °C1013.80 hPa86.00 %14.40 °C15.02
23:00:0016.90 °C1013.30 hPa85.00 %14.40 °C15.02
22:45:0017.10 °C1013.40 hPa83.00 %14.20 °C13.47
22:30:0017.90 °C1013.10 hPa79.00 %14.20 °C12.95
22:15:0019.10 °C1013.80 hPa78.00 %15.20 °C12.43
22:00:0020.30 °C1014.20 hPa77.00 %16.10 °C12.43
21:45:0022.40 °C1013.90 hPa71.00 %16.90 °C12.43
21:30:0022.90 °C1011.90 hPa70.00 %17.10 °C 
21:15:0023.30 °C1011.40 hPa69.00 %17.30 °C 
21:00:0023.60 °C1011.30 hPa67.00 %17.10 °C 
20:45:0024.10 °C1011.50 hPa65.00 %183.60 km/hOSO23.90 °C17.10 °C 
20:30:0024.90 °C1011.30 hPa62.00 %17.10 °C 
20:15:0025.90 °C1011.40 hPa59.00 %17.30 °C 
20:00:0027.30 °C1011.60 hPa55.00 %17.50 °C 
19:45:0028.80 °C1011.60 hPa52.00 %18.00 °C 
19:30:0029.90 °C1011.80 hPa49.00 %18.00 °C 
19:15:0030.90 °C1012.00 hPa47.00 %18.30 °C 
19:00:0031.90 °C1012.00 hPa45.00 %18.50 °C 
18:45:0032.40 °C1012.20 hPa45.00 %18.90 °C 
18:30:0032.60 °C1012.30 hPa46.00 %19.50 °C 
18:15:0032.80 °C1012.70 hPa43.00 %18.60 °C 
18:00:0033.00 °C1012.70 hPa41.00 %18.00 °C 
17:45:0032.90 °C1012.70 hPa39.00 %17.10 °C 
17:30:0032.90 °C1012.80 hPa40.00 %17.50 °C 
17:15:0033.20 °C1012.90 hPa40.00 %17.80 °C 
17:00:0032.30 °C1013.00 hPa44.00 %18.50 °C 
16:45:0031.90 °C1013.30 hPa43.00 %17.80 °C 
16:30:0032.10 °C1013.40 hPa43.00 %17.90 °C 
16:15:0032.30 °C1013.40 hPa44.00 %18.50 °C 
16:00:0032.40 °C1013.50 hPa44.00 %18.60 °C 
15:45:0032.60 °C1013.50 hPa41.00 %17.60 °C 
15:30:0033.40 °C1013.80 hPa40.00 %18.00 °C 
15:15:0033.40 °C1013.80 hPa43.00 %19.10 °C 
15:00:0032.40 °C1013.80 hPa43.00 %18.20 °C 
14:45:0032.60 °C1014.20 hPa42.00 %18.00 °C 
14:30:0033.30 °C1014.30 hPa42.00 %18.60 °C 
14:15:0032.90 °C1014.40 hPa44.00 %19.00 °C 
14:00:0032.80 °C1014.20 hPa45.00 %19.30 °C 
13:45:0032.40 °C1014.20 hPa46.00 %19.30 °C 
13:30:0031.20 °C1014.40 hPa49.00 %19.20 °C 
13:15:0030.60 °C1014.40 hPa49.00 %18.70 °C 
13:00:0031.10 °C1014.60 hPa49.00 %19.10 °C 
12:45:0032.30 °C1014.60 hPa45.00 %18.80 °C 
12:30:0032.40 °C1014.70 hPa48.00 %20.00 °C 
12:15:0031.60 °C1014.70 hPa49.00 %19.60 °C 
12:00:0030.50 °C1015.00 hPa50.00 %18.90 °C 
11:45:0030.00 °C1015.00 hPa50.00 %18.40 °C 
11:30:0029.80 °C1015.00 hPa50.00 %18.30 °C 
11:15:0029.50 °C1015.10 hPa51.00 %18.30 °C 
11:00:0029.40 °C1015.10 hPa53.00 %18.80 °C 
10:45:0028.90 °C1015.10 hPa55.00 %18.90 °C 
10:30:0028.30 °C1015.00 hPa56.00 %18.70 °C 
10:15:0027.90 °C1015.10 hPa56.00 %18.30 °C 
10:00:0027.40 °C1015.10 hPa56.00 %17.80 °C 
09:45:0027.20 °C1015.30 hPa57.00 %17.90 °C 
09:30:0026.90 °C1015.00 hPa59.00 %18.20 °C 
09:15:0027.10 °C1015.20 hPa59.00 %18.40 °C 
09:00:0027.00 °C1015.20 hPa61.00 %18.80 °C 
08:45:0026.30 °C1015.30 hPa63.00 %18.70 °C 
08:30:0025.40 °C1015.50 hPa66.00 %18.60 °C 
08:15:0024.60 °C1015.40 hPa69.00 %18.50 °C 
08:00:0024.20 °C1015.20 hPa71.00 %18.60 °C 
07:45:0022.90 °C1015.30 hPa76.00 %18.40 °C 
07:30:0020.70 °C1015.20 hPa82.00 %17.50 °C 
07:15:0017.30 °C1015.20 hPa89.00 %15.50 °C 
07:00:0015.80 °C1015.20 hPa90.00 %14.20 °C 
06:45:0015.10 °C1015.20 hPa90.00 %13.50 °C 
06:30:0014.40 °C1015.10 hPa90.00 %12.80 °C 
06:15:0013.80 °C1015.10 hPa90.00 %12.20 °C 
06:00:0013.60 °C1015.00 hPa90.00 %12.00 °C 
05:45:0013.40 °C1015.10 hPa89.00 %11.60 °C 
05:30:0013.40 °C1015.20 hPa89.00 %11.60 °C 
05:15:0013.40 °C1015.20 hPa89.00 %11.60 °C 
05:00:0013.50 °C1015.10 hPa89.00 %11.70 °C 
04:45:0013.60 °C1015.10 hPa89.00 %11.80 °C 
04:30:0013.60 °C1015.00 hPa89.00 %11.80 °C 
04:15:0013.50 °C1015.10 hPa89.00 %11.70 °C 
04:00:0013.60 °C1015.10 hPa89.00 %11.80 °C 
03:45:0013.70 °C1015.20 hPa89.00 %11.90 °C 
03:30:0013.60 °C1015.30 hPa88.00 %11.70 °C 
03:15:0013.80 °C1015.30 hPa88.00 %11.80 °C 
03:00:0013.90 °C1015.20 hPa88.00 %11.90 °C 
02:45:0013.90 °C1015.20 hPa88.00 %11.90 °C 
02:30:0014.10 °C1015.20 hPa87.00 %12.00 °C 
02:15:0014.30 °C1015.10 hPa87.00 %12.20 °C 
02:00:0014.40 °C1015.40 hPa87.00 %12.30 °C 
01:45:0014.80 °C1015.50 hPa86.00 %12.50 °C 
01:30:0014.90 °C1015.40 hPa87.00 %12.80 °C 
01:15:0014.90 °C1015.50 hPa86.00 %12.60 °C 
01:00:0015.10 °C1015.60 hPa85.00 %12.60 °C 
00:45:0015.40 °C1015.80 hPa84.00 %12.70 °C 
00:30:0015.80 °C1015.80 hPa84.00 %13.10 °C 
00:15:0016.10 °C1015.80 hPa84.00 %13.40 °C 
00:00:0016.30 °C1015.80 hPa83.00 %13.40 °C 

Permanenter Link zu dieser Seite: Wetter im Erzgebirge am 22.07.2015
Performance-Info: Die Erstellung der Seite / Statistik(en) / Tabelle(n) erforderte 5 Datenbankserver-Abfrage(n) und dauerte 113 Millisekunden. (Dieser Messwert ist von der Gesamt-Auslastung des Servers abhängig.)
Erzgebirge - Wetter | Erzgebirge - Wetter (Mobilgeräte) | Komplette Klimadatenbank